createdAt,value
2022-12-11T00:04:18.460Z,36.70
2022-12-11T00:09:20.994Z,29.23
2022-12-11T00:14:22.457Z,30.13
2022-12-11T00:19:23.923Z,35.47
2022-12-11T00:24:25.410Z,34.15
2022-12-11T00:29:26.923Z,38.25
2022-12-11T00:34:28.423Z,40.47
2022-12-11T00:39:29.878Z,41.28
2022-12-11T00:44:31.388Z,45.58
2022-12-11T00:49:33.007Z,46.15
2022-12-11T00:54:34.583Z,48.10
2022-12-11T00:59:36.019Z,47.45
2022-12-11T01:04:37.521Z,49.15
2022-12-11T01:09:57.968Z,53.90
2022-12-11T01:14:59.406Z,43.40
2022-12-11T01:20:00.850Z,50.92
2022-12-11T01:25:02.648Z,46.38
2022-12-11T01:30:07.476Z,56.63
2022-12-11T01:35:09.920Z,47.80
2022-12-11T01:40:16.855Z,47.60
2022-12-11T01:45:40.322Z,54.25
2022-12-11T01:50:52.230Z,52.47
2022-12-11T01:55:57.127Z,55.78
2022-12-11T02:00:59.240Z,59.33
2022-12-11T02:06:01.847Z,65.72
2022-12-11T02:11:21.013Z,56.75
2022-12-11T02:16:42.126Z,60.53
2022-12-11T02:21:49.370Z,59.92
2022-12-11T02:27:08.853Z,63.78
2022-12-11T02:32:31.310Z,66.53
2022-12-11T02:37:38.019Z,61.15
2022-12-11T02:42:42.478Z,60.40
2022-12-11T02:47:47.159Z,60.55
2022-12-11T02:52:51.764Z,62.17
2022-12-11T02:58:00.371Z,67.85
2022-12-11T03:03:02.435Z,67.63
2022-12-11T03:08:04.383Z,72.15
2022-12-11T03:13:05.896Z,69.13
2022-12-11T03:18:32.100Z,62.08
2022-12-11T03:23:44.020Z,69.80
2022-12-11T03:28:59.573Z,60.90
2022-12-11T03:34:04.462Z,64.78
2022-12-11T03:39:12.505Z,68.03
2022-12-11T03:44:15.906Z,61.67
2022-12-11T03:49:22.068Z,63.90
2022-12-11T03:54:24.836Z,57.75
2022-12-11T03:59:26.284Z,64.20
2022-12-11T04:04:27.826Z,59.83
2022-12-11T04:09:29.438Z,66.45
2022-12-11T04:14:49.557Z,58.25
2022-12-11T04:20:09.518Z,61.83
2022-12-11T04:25:11.375Z,57.08
2022-12-11T04:30:16.574Z,62.75
2022-12-11T04:35:20.110Z,62.70
2022-12-11T04:40:22.459Z,65.97
2022-12-11T04:45:23.940Z,63.65
2022-12-11T04:50:25.972Z,63.45
2022-12-11T04:55:27.392Z,56.55
2022-12-11T05:00:28.821Z,60.95
2022-12-11T05:05:30.328Z,54.97
2022-12-11T05:10:31.906Z,62.63
2022-12-11T05:15:33.394Z,60.50
2022-12-11T05:20:34.888Z,54.45
2022-12-11T05:25:36.328Z,58.28
2022-12-11T05:30:37.880Z,63.28
2022-12-11T05:35:39.363Z,58.65
2022-12-11T05:40:40.908Z,52.17
2022-12-11T05:45:42.349Z,53.63
2022-12-11T05:50:43.904Z,53.63
2022-12-11T05:55:45.332Z,58.35
2022-12-11T06:00:47.889Z,52.10
2022-12-11T06:05:49.453Z,58.45
2022-12-11T06:10:51.006Z,58.65
2022-12-11T06:15:53.116Z,61.53
2022-12-11T06:20:54.726Z,58.60
2022-12-11T06:25:56.183Z,60.55
2022-12-11T06:31:01.264Z,65.00
2022-12-11T06:36:04.431Z,54.25
2022-12-11T06:41:07.257Z,59.17
2022-12-11T06:46:11.690Z,63.47
2022-12-11T06:51:16.265Z,57.00
2022-12-11T06:56:17.744Z,51.25
2022-12-11T07:01:27.314Z,57.50
2022-12-11T07:06:29.838Z,58.72
2022-12-11T07:11:31.340Z,59.15
2022-12-11T07:16:32.955Z,63.72
2022-12-11T07:21:34.692Z,62.20
2022-12-11T07:26:36.168Z,58.55
2022-12-11T07:31:37.739Z,57.45
2022-12-11T07:36:39.355Z,60.63
2022-12-11T07:41:40.963Z,62.78
2022-12-11T07:46:42.609Z,53.65
2022-12-11T07:51:44.124Z,55.60
2022-12-11T07:56:52.781Z,58.70
2022-12-11T08:01:55.162Z,64.87
2022-12-11T08:06:57.780Z,79.88
2022-12-11T08:11:59.298Z,68.10
2022-12-11T08:17:02.515Z,57.22
2022-12-11T08:22:04.156Z,61.15
2022-12-11T08:27:05.721Z,51.20
2022-12-11T08:32:12.072Z,48.13
2022-12-11T08:37:13.999Z,48.60
2022-12-11T08:42:15.512Z,46.28
2022-12-11T08:47:17.067Z,45.53
2022-12-11T08:52:18.707Z,50.05
2022-12-11T08:57:20.213Z,45.28
2022-12-11T09:02:21.830Z,59.40
2022-12-11T09:07:23.336Z,55.10
2022-12-11T09:12:24.987Z,46.45
2022-12-11T09:17:26.947Z,53.80
2022-12-11T09:22:28.683Z,49.20
2022-12-11T09:27:30.210Z,50.13
2022-12-11T09:32:31.825Z,50.58
2022-12-11T09:37:34.006Z,48.92
2022-12-11T09:43:03.303Z,50.22
2022-12-11T09:48:05.203Z,50.33
2022-12-11T09:53:19.561Z,56.30
2022-12-11T09:58:21.011Z,55.33
2022-12-11T10:03:37.137Z,68.93
2022-12-11T10:08:41.587Z,57.60
2022-12-11T10:13:46.086Z,58.28
2022-12-11T10:18:49.174Z,56.63
2022-12-11T10:23:58.564Z,54.60
2022-12-11T10:29:01.873Z,51.80
2022-12-11T10:34:11.745Z,46.75
2022-12-11T10:39:22.110Z,44.95
2022-12-11T10:49:31.973Z,43.72
2022-12-11T10:54:38.310Z,45.65
2022-12-11T10:59:50.054Z,44.25
2022-12-11T11:04:53.192Z,49.97
2022-12-11T11:10:14.260Z,41.97
2022-12-11T11:15:18.095Z,43.00
2022-12-11T11:20:22.648Z,37.03
2022-12-11T11:25:27.011Z,40.15
2022-12-11T11:30:38.513Z,36.10
2022-12-11T11:35:45.658Z,40.35
2022-12-11T11:41:14.777Z,68.00
2022-12-11T11:46:38.608Z,38.28
2022-12-11T11:51:46.272Z,51.88
2022-12-11T11:56:53.809Z,62.97
2022-12-11T12:01:57.173Z,59.60
2022-12-11T12:07:10.646Z,59.83
2022-12-11T12:12:37.220Z,37.85
2022-12-11T12:17:56.476Z,36.45
2022-12-11T12:23:14.295Z,33.70
2022-12-11T12:28:27.874Z,39.97
2022-12-11T12:34:21.858Z,32.38
2022-12-11T12:39:48.273Z,33.97
2022-12-11T12:45:07.915Z,54.15
2022-12-11T12:50:13.891Z,46.33
2022-12-11T12:55:29.009Z,33.17
2022-12-11T13:00:30.484Z,31.33
2022-12-11T13:05:34.465Z,30.55
2022-12-11T13:10:38.093Z,29.65
2022-12-11T13:15:43.828Z,28.13
2022-12-11T13:20:51.765Z,30.08
2022-12-11T13:25:59.590Z,29.83
2022-12-11T13:31:24.103Z,31.42
2022-12-11T13:36:37.801Z,25.17
2022-12-11T13:41:40.446Z,32.45
2022-12-11T13:46:44.067Z,34.65
2022-12-11T13:51:53.228Z,32.30
2022-12-11T13:57:00.418Z,32.00
2022-12-11T14:02:12.970Z,33.78
2022-12-11T14:07:20.798Z,38.00
2022-12-11T14:12:22.421Z,34.50
2022-12-11T14:17:27.540Z,32.80
2022-12-11T14:22:30.470Z,32.85
2022-12-11T14:27:32.244Z,40.05
2022-12-11T14:32:45.021Z,35.90
2022-12-11T14:37:46.904Z,39.35
2022-12-11T14:43:00.011Z,40.88
2022-12-11T14:48:07.776Z,34.08
2022-12-11T14:53:29.305Z,31.80
2022-12-11T14:58:33.092Z,27.08
2022-12-11T15:03:37.083Z,32.28
2022-12-11T15:08:38.662Z,31.65
2022-12-11T15:14:02.997Z,30.05
2022-12-11T15:19:04.691Z,32.58
2022-12-11T15:24:07.107Z,37.38
2022-12-11T15:29:30.760Z,30.35
2022-12-11T15:34:43.072Z,57.25
2022-12-11T15:39:44.648Z,38.03
2022-12-11T15:44:46.369Z,39.47
2022-12-11T15:49:47.776Z,29.02
2022-12-11T15:54:49.200Z,31.67
2022-12-11T15:59:52.663Z,29.20
2022-12-11T16:04:54.498Z,33.30
2022-12-11T16:09:55.918Z,35.13
2022-12-11T16:14:57.409Z,38.88
2022-12-11T16:19:58.963Z,33.78
2022-12-11T16:25:00.508Z,41.55
2022-12-11T16:30:01.985Z,40.42
2022-12-11T16:35:03.750Z,37.47
2022-12-11T16:40:06.696Z,44.45
2022-12-11T16:45:12.745Z,54.53
2022-12-11T16:50:15.716Z,42.95
2022-12-11T16:55:21.049Z,62.47
2022-12-11T17:00:22.795Z,57.17
2022-12-11T17:05:24.889Z,48.72
2022-12-11T17:10:26.331Z,49.15
2022-12-11T17:15:27.927Z,46.22
2022-12-11T17:20:29.472Z,80.40
2022-12-11T17:25:30.994Z,53.70
2022-12-11T17:30:32.890Z,78.53
2022-12-11T17:35:34.592Z,62.63
2022-12-11T17:40:40.300Z,47.78
2022-12-11T17:45:43.436Z,62.63
2022-12-11T17:50:47.026Z,53.72
2022-12-11T17:55:49.818Z,47.60
2022-12-11T18:00:55.714Z,48.08
2022-12-11T18:05:57.799Z,56.13
2022-12-11T18:11:13.467Z,45.95
2022-12-11T18:16:18.154Z,65.70
2022-12-11T18:21:22.709Z,67.75
2022-12-11T18:26:24.503Z,52.55
2022-12-11T18:31:26.206Z,54.35
2022-12-11T18:36:27.771Z,43.80
2022-12-11T18:41:29.241Z,43.38
2022-12-11T18:46:30.734Z,45.95
2022-12-11T18:51:32.280Z,46.60
2022-12-11T18:56:33.826Z,46.67
2022-12-11T19:01:35.455Z,46.88
2022-12-11T19:06:37.002Z,42.35
2022-12-11T19:11:40.506Z,47.50
2022-12-11T19:16:45.390Z,48.92
2022-12-11T19:21:47.507Z,58.25
2022-12-11T19:26:49.412Z,65.22
2022-12-11T19:31:51.651Z,63.13
2022-12-11T19:36:53.773Z,64.38
2022-12-11T19:41:55.412Z,49.83
2022-12-11T19:46:56.998Z,47.85
2022-12-11T19:51:58.715Z,60.85
2022-12-11T19:57:00.228Z,70.13
2022-12-11T20:02:01.750Z,81.03
2022-12-11T20:07:03.910Z,77.45
2022-12-11T20:12:10.195Z,89.40
2022-12-11T20:17:14.627Z,67.78
2022-12-11T20:22:16.505Z,58.53
2022-12-11T20:27:18.155Z,58.20
2022-12-11T20:32:19.727Z,53.72
2022-12-11T20:37:21.242Z,54.03
2022-12-11T20:42:24.117Z,52.13
2022-12-11T20:47:25.887Z,57.28
2022-12-11T20:52:28.150Z,65.38
2022-12-11T20:57:29.575Z,61.22
2022-12-11T21:02:31.293Z,58.70
2022-12-11T21:07:32.871Z,63.50
2022-12-11T21:12:34.322Z,58.55
2022-12-11T21:17:35.954Z,67.15
2022-12-11T21:22:37.514Z,58.67
2022-12-11T21:27:39.091Z,69.63
2022-12-11T21:32:41.345Z,57.92
2022-12-11T21:37:42.789Z,53.83
2022-12-11T21:42:44.232Z,51.25
2022-12-11T21:47:45.730Z,53.30
2022-12-11T21:52:47.563Z,48.47
2022-12-11T21:57:49.078Z,52.75
2022-12-11T22:02:50.866Z,46.75
2022-12-11T22:07:52.414Z,53.05
2022-12-11T22:12:53.922Z,52.92
2022-12-11T22:17:55.383Z,54.55
2022-12-11T22:22:56.913Z,44.17
2022-12-11T22:27:58.350Z,51.35
2022-12-11T22:32:59.839Z,42.40
2022-12-11T22:38:01.743Z,37.78
2022-12-11T22:43:03.209Z,43.55
2022-12-11T22:48:05.162Z,39.47
2022-12-11T22:53:06.652Z,36.42
2022-12-11T22:58:08.071Z,40.38
2022-12-11T23:03:09.712Z,40.80
2022-12-11T23:08:11.351Z,40.03
2022-12-11T23:13:12.825Z,40.22
2022-12-11T23:18:14.367Z,39.72
2022-12-11T23:23:15.779Z,47.95
2022-12-11T23:28:17.270Z,37.22
2022-12-11T23:33:18.823Z,43.25
2022-12-11T23:38:20.288Z,37.97
2022-12-11T23:43:22.237Z,36.08
2022-12-11T23:48:23.722Z,33.75
2022-12-11T23:53:25.219Z,39.78
2022-12-11T23:58:26.646Z,34.33
